Thunder radar more information blitzortung!


Radar de pluja more information rain snow radar


Visita la nostra xarxa de llocs de meteo:

Template documentation
and downloads

And another site



Wind From: 11-12-2017 11:00 Until: 14:59 warning for: Wind Level: Yellow info button

Pagina Historial Weather Underground text

Diari Resum Novembre 8, 2017 Unitats:  Tant    Imperial   Mètric
« Previous Dia
SegĂźent Dia »
Diari Setmana Mensual Anual Personalitzada
  Maxima: Minima: Media:
Temperatura: 53.4 °F /  11.9 °C 37.8 °F /  3.2 °C 47.7 °F /  8.7 °C
Punt de rosada: 34.7 °F /  1.5 °C 21.6 °F /  -5.8 °C 30.9 °F /  -0.6 °C
Humitat: 63 % 46 % 52 %
Wind Speed: 5.8 mph /  9.3 km/h - 1.9 mph /  3.1 km/h
RĂ fegues de vent: 5.8 mph /  9.3 km/h - -
Vent:- - SSE
Pression baro: 30.2 in /  1023.9 hPa 30.1 in /  1019.9 hPa -
Precipitacions: 0 in /  0.0 mm    
Historical Graphs
 
 
Dades de taula per Novembre 8, 2017
Temps Temperatura Punt de rosada Pression baro Vent Wind Speed RĂ fegues de vent Humitat Rainfall Rate (Hourly)
00:04 40.3 °F /  4.6 °C 21.6 °F /  -5.8 °C 30.1 in /  1019.9 hPa WSW 2.3 mph /  3.7 km/h 2.3 mph /  3.7 km/h 47 % 0 in /  0.0 mm
00:05 38.7 °F /  3.7 °C 22.1 °F /  -5.5 °C 30.1 in /  1019.9 hPa West 1 mph /  1.6 km/h 2 mph /  3.2 km/h 51 % 0 in /  0.0 mm
00:15 38.5 °F /  3.6 °C 22.5 °F /  -5.3 °C 30.1 in /  1019.9 hPa Calm   2 mph /  3.2 km/h 52 % 0 in /  0.0 mm
00:25 38.1 °F /  3.4 °C 21.9 °F /  -5.6 °C 30.1 in /  1019.9 hPa WSW 1 mph /  1.6 km/h 2 mph /  3.2 km/h 52 % 0 in /  0.0 mm
00:35 37.9 °F /  3.3 °C 21.9 °F /  -5.6 °C 30.1 in /  1019.9 hPa SW 1 mph /  1.6 km/h 2 mph /  3.2 km/h 52 % 0 in /  0.0 mm
00:45 38.1 °F /  3.4 °C 21.9 °F /  -5.6 °C 30.1 in /  1019.9 hPa Calm     52 % 0 in /  0.0 mm
00:55 38.1 °F /  3.4 °C 21.9 °F /  -5.6 °C 30.1 in /  1019.9 hPa SW 2 mph /  3.2 km/h 2 mph /  3.2 km/h 52 % 0 in /  0.0 mm
01:05 38.1 °F /  3.4 °C 21.9 °F /  -5.6 °C 30.1 in /  1019.9 hPa WSW 1 mph /  1.6 km/h 2 mph /  3.2 km/h 52 % 0 in /  0.0 mm
01:15 38.1 °F /  3.4 °C 21.9 °F /  -5.6 °C 30.1 in /  1019.9 hPa West 1 mph /  1.6 km/h 2 mph /  3.2 km/h 52 % 0 in /  0.0 mm
01:35 38.3 °F /  3.5 °C 22.6 °F /  -5.2 °C 30.1 in /  1019.9 hPa Calm   2 mph /  3.2 km/h 53 % 0 in /  0.0 mm
01:45 38.3 °F /  3.5 °C 22.3 °F /  -5.4 °C 30.1 in /  1019.9 hPa WSW 1 mph /  1.6 km/h 2 mph /  3.2 km/h 52 % 0 in /  0.0 mm
01:55 38.7 °F /  3.7 °C 22.5 °F /  -5.3 °C 30.2 in /  1020.9 hPa West 1 mph /  1.6 km/h 2 mph /  3.2 km/h 52 % 0 in /  0.0 mm
02:05 39.2 °F /  4.0 °C 23.5 °F /  -4.7 °C 30.2 in /  1020.9 hPa NW 2 mph /  3.2 km/h 3 mph /  4.8 km/h 53 % 0 in /  0.0 mm
02:15 38.1 °F /  3.4 °C 22.5 °F /  -5.3 °C 30.2 in /  1021.9 hPa NNE 3 mph /  4.8 km/h 4 mph /  6.4 km/h 53 % 0 in /  0.0 mm
02:25 37.8 °F /  3.2 °C 21.7 °F /  -5.7 °C 30.2 in /  1021.9 hPa NNE 1 mph /  1.6 km/h 4 mph /  6.4 km/h 52 % 0 in /  0.0 mm
02:35 39.4 °F /  4.1 °C 23.7 °F /  -4.6 °C 30.2 in /  1021.9 hPa Calm   2 mph /  3.2 km/h 53 % 0 in /  0.0 mm
02:45 40.1 °F /  4.5 °C 24.3 °F /  -4.3 °C 30.2 in /  1021.9 hPa Calm   2 mph /  3.2 km/h 53 % 0 in /  0.0 mm
02:55 41 °F /  5.0 °C 25.2 °F /  -3.8 °C 30.2 in /  1021.9 hPa West 1 mph /  1.6 km/h 3 mph /  4.8 km/h 53 % 0 in /  0.0 mm
03:05 41.5 °F /  5.3 °C 25.2 °F /  -3.8 °C 30.2 in /  1021.9 hPa NW 2 mph /  3.2 km/h 2 mph /  3.2 km/h 52 % 0 in /  0.0 mm
03:15 42.6 °F /  5.9 °C 26.2 °F /  -3.2 °C 30.2 in /  1021.9 hPa NW 1 mph /  1.6 km/h 3 mph /  4.8 km/h 52 % 0 in /  0.0 mm
03:25 43.9 °F /  6.6 °C 27.3 °F /  -2.6 °C 30.2 in /  1021.9 hPa WNW 1 mph /  1.6 km/h 2 mph /  3.2 km/h 52 % 0 in /  0.0 mm
03:35 44.8 °F /  7.1 °C 28.2 °F /  -2.1 °C 30.2 in /  1021.9 hPa NW 2 mph /  3.2 km/h 4 mph /  6.4 km/h 52 % 0 in /  0.0 mm
03:45 45.9 °F /  7.7 °C 28.8 °F /  -1.8 °C 30.2 in /  1020.9 hPa NNW 2 mph /  3.2 km/h 3 mph /  4.8 km/h 51 % 0 in /  0.0 mm
03:55 46.9 °F /  8.3 °C 29.7 °F /  -1.3 °C 30.2 in /  1021.9 hPa NNW 1 mph /  1.6 km/h 1 mph /  1.6 km/h 51 % 0 in /  0.0 mm
04:05 47.7 °F /  8.7 °C 30.4 °F /  -0.9 °C 30.2 in /  1021.9 hPa ENE 1 mph /  1.6 km/h 2 mph /  3.2 km/h 51 % 0 in /  0.0 mm
04:15 49.1 °F /  9.5 °C 31.6 °F /  -0.2 °C 30.2 in /  1021.9 hPa ESE 1 mph /  1.6 km/h 2 mph /  3.2 km/h 51 % 0 in /  0.0 mm
04:25 48.2 °F /  9.0 °C 30.4 °F /  -0.9 °C 30.2 in /  1021.9 hPa NE 2 mph /  3.2 km/h 3 mph /  4.8 km/h 50 % 0 in /  0.0 mm
04:35 49.1 °F /  9.5 °C 31.3 °F /  -0.4 °C 30.2 in /  1021.9 hPa ENE 1 mph /  1.6 km/h 4 mph /  6.4 km/h 50 % 0 in /  0.0 mm
04:45 49.6 °F /  9.8 °C 31.3 °F /  -0.4 °C 30.2 in /  1021.9 hPa NE 2 mph /  3.2 km/h 2 mph /  3.2 km/h 49 % 0 in /  0.0 mm
04:55 49.1 °F /  9.5 °C 30.7 °F /  -0.7 °C 30.2 in /  1021.9 hPa NE 1 mph /  1.6 km/h 2 mph /  3.2 km/h 49 % 0 in /  0.0 mm
11:02 49.3 °F /  9.6 °C 30.9 °F /  -0.6 °C 30.2 in /  1021.9 hPa North 1.6 mph /  2.6 km/h 1.6 mph /  2.6 km/h 49 % 0 in /  0.0 mm
11:03 49.3 °F /  9.6 °C 30.9 °F /  -0.6 °C 30.2 in /  1021.9 hPa North 2.3 mph /  3.7 km/h 2.3 mph /  3.7 km/h 49 % 0 in /  0.0 mm
11:04 49.3 °F /  9.6 °C 30.9 °F /  -0.6 °C 30.2 in /  1021.9 hPa WNW 2.3 mph /  3.7 km/h 2.3 mph /  3.7 km/h 49 % 0 in /  0.0 mm
11:09 48.9 °F /  9.4 °C 30 °F /  -1.1 °C 30.2 in /  1021.9 hPa NNE 3.5 mph /  5.6 km/h 3.5 mph /  5.6 km/h 48 % 0 in /  0.0 mm
11:14 48.9 °F /  9.4 °C 30 °F /  -1.1 °C 30.2 in /  1021.9 hPa NNE 2.4 mph /  3.9 km/h 2.4 mph /  3.9 km/h 48 % 0 in /  0.0 mm
11:19 49.3 °F /  9.6 °C 30.4 °F /  -0.9 °C 30.2 in /  1021.9 hPa NNW 2.3 mph /  3.7 km/h   48 % 0 in /  0.0 mm
11:24 49.3 °F /  9.6 °C 30.4 °F /  -0.9 °C 30.2 in /  1021.9 hPa ENE 2.3 mph /  3.7 km/h 2.3 mph /  3.7 km/h 48 % 0 in /  0.0 mm
11:29 49.6 °F /  9.8 °C 30.7 °F /  -0.7 °C 30.2 in /  1021.9 hPa ENE 2.6 mph /  4.2 km/h 2.6 mph /  4.2 km/h 48 % 0 in /  0.0 mm
11:34 50 °F /  10.0 °C 31.1 °F /  -0.5 °C 30.2 in /  1021.9 hPa NNW 2.3 mph /  3.7 km/h 2.3 mph /  3.7 km/h 48 % 0 in /  0.0 mm
11:39 50.4 °F /  10.2 °C 31.5 °F /  -0.3 °C 30.2 in /  1021.9 hPa NNE 1.4 mph /  2.3 km/h   48 % 0 in /  0.0 mm
11:44 50.9 °F /  10.5 °C 31.8 °F /  -0.1 °C 30.2 in /  1021.9 hPa ENE 2.3 mph /  3.7 km/h   48 % 0 in /  0.0 mm
11:49 51.1 °F /  10.6 °C 31.5 °F /  -0.3 °C 30.2 in /  1021.9 hPa WNW 2.3 mph /  3.7 km/h 2.3 mph /  3.7 km/h 47 % 0 in /  0.0 mm
11:54 51.3 °F /  10.7 °C 31.6 °F /  -0.2 °C 30.2 in /  1020.9 hPa ENE 2.6 mph /  4.2 km/h 2.6 mph /  4.2 km/h 47 % 0 in /  0.0 mm
11:59 51.1 °F /  10.6 °C 31.5 °F /  -0.3 °C 30.2 in /  1020.9 hPa NNW 2.3 mph /  3.7 km/h 2.3 mph /  3.7 km/h 47 % 0 in /  0.0 mm
12:04 51.3 °F /  10.7 °C 31.6 °F /  -0.2 °C 30.2 in /  1020.9 hPa NE 3.5 mph /  5.6 km/h 3.5 mph /  5.6 km/h 47 % 0 in /  0.0 mm
12:09 51.4 °F /  10.8 °C 31.8 °F /  -0.1 °C 30.2 in /  1021.9 hPa NE 2.3 mph /  3.7 km/h 2.3 mph /  3.7 km/h 47 % 0 in /  0.0 mm
12:14 52.2 °F /  11.2 °C 32.5 °F /  0.3 °C 30.2 in /  1021.9 hPa NNW 2.3 mph /  3.7 km/h 2.3 mph /  3.7 km/h 47 % 0 in /  0.0 mm
12:19 52.2 °F /  11.2 °C 32.5 °F /  0.3 °C 30.2 in /  1021.9 hPa ENE 2.4 mph /  3.9 km/h 2.4 mph /  3.9 km/h 47 % 0 in /  0.0 mm
12:24 52.5 °F /  11.4 °C 32.9 °F /  0.5 °C 30.2 in /  1021.9 hPa NNW 3.5 mph /  5.6 km/h 3.5 mph /  5.6 km/h 47 % 0 in /  0.0 mm
12:29 52.7 °F /  11.5 °C 33.1 °F /  0.6 °C 30.2 in /  1021.9 hPa ENE 4.6 mph /  7.4 km/h 4.6 mph /  7.4 km/h 47 % 0 in /  0.0 mm
12:34 52.5 °F /  11.4 °C 32.9 °F /  0.5 °C 30.2 in /  1021.9 hPa NNE 5.4 mph /  8.7 km/h 5.4 mph /  8.7 km/h 47 % 0 in /  0.0 mm
12:39 52.2 °F /  11.2 °C 32 °F /  0.0 °C 30.2 in /  1021.9 hPa ENE 4.6 mph /  7.4 km/h 4.6 mph /  7.4 km/h 46 % 0 in /  0.0 mm
12:44 52 °F /  11.1 °C 31.8 °F /  -0.1 °C 30.2 in /  1021.9 hPa NNE 3.5 mph /  5.6 km/h 3.5 mph /  5.6 km/h 46 % 0 in /  0.0 mm
12:49 52.3 °F /  11.3 °C 32.2 °F /  0.1 °C 30.2 in /  1021.9 hPa ESE 2.4 mph /  3.9 km/h 2.4 mph /  3.9 km/h 46 % 0 in /  0.0 mm
12:54 52.5 °F /  11.4 °C 32.4 °F /  0.2 °C 30.2 in /  1021.9 hPa ENE 4.6 mph /  7.4 km/h 4.6 mph /  7.4 km/h 46 % 0 in /  0.0 mm
12:59 52.7 °F /  11.5 °C 32.5 °F /  0.3 °C 30.2 in /  1021.9 hPa NNE 2.6 mph /  4.2 km/h 2.6 mph /  4.2 km/h 46 % 0 in /  0.0 mm
13:04 53.1 °F /  11.7 °C 32.7 °F /  0.4 °C 30.2 in /  1021.9 hPa NE 2.9 mph /  4.7 km/h 2.9 mph /  4.7 km/h 46 % 0 in /  0.0 mm
13:09 53.4 °F /  11.9 °C 33.1 °F /  0.6 °C 30.2 in /  1021.9 hPa NNE 3.8 mph /  6.1 km/h 3.8 mph /  6.1 km/h 46 % 0 in /  0.0 mm
13:14 53.4 °F /  11.9 °C 33.1 °F /  0.6 °C 30.2 in /  1021.9 hPa NE 2.3 mph /  3.7 km/h 2.3 mph /  3.7 km/h 46 % 0 in /  0.0 mm
13:19 53.2 °F /  11.8 °C 33.1 °F /  0.6 °C 30.2 in /  1021.9 hPa ENE 3.8 mph /  6.1 km/h 3.8 mph /  6.1 km/h 46 % 0 in /  0.0 mm
13:24 53.1 °F /  11.7 °C 32.7 °F /  0.4 °C 30.2 in /  1021.9 hPa NE 4.6 mph /  7.4 km/h 4.6 mph /  7.4 km/h 46 % 0 in /  0.0 mm
13:29 53.2 °F /  11.8 °C 33.1 °F /  0.6 °C 30.2 in /  1021.9 hPa ENE 4.6 mph /  7.4 km/h 4.6 mph /  7.4 km/h 46 % 0 in /  0.0 mm
13:34 53.4 °F /  11.9 °C 33.1 °F /  0.6 °C 30.2 in /  1021.9 hPa NNE 3.5 mph /  5.6 km/h 3.5 mph /  5.6 km/h 46 % 0 in /  0.0 mm
13:44 53.4 °F /  11.9 °C 33.1 °F /  0.6 °C 30.2 in /  1020.9 hPa NNE 4.6 mph /  7.4 km/h 4.6 mph /  7.4 km/h 46 % 0 in /  0.0 mm
13:49 53.4 °F /  11.9 °C 33.1 °F /  0.6 °C 30.2 in /  1020.9 hPa NNE 2.6 mph /  4.2 km/h   46 % 0 in /  0.0 mm
13:54 53.2 °F /  11.8 °C 33.1 °F /  0.6 °C 30.2 in /  1020.9 hPa NNE 2.3 mph /  3.7 km/h   46 % 0 in /  0.0 mm
13:59 53.4 °F /  11.9 °C 33.6 °F /  0.9 °C 30.2 in /  1020.9 hPa NNE 2.3 mph /  3.7 km/h 2.3 mph /  3.7 km/h 47 % 0 in /  0.0 mm
14:04 53.2 °F /  11.8 °C 33.1 °F /  0.6 °C 30.2 in /  1020.9 hPa NNE 4 mph /  6.4 km/h 4 mph /  6.4 km/h 46 % 0 in /  0.0 mm
14:09 53.1 °F /  11.7 °C 33.3 °F /  0.7 °C 30.2 in /  1021.9 hPa NNE 3.5 mph /  5.6 km/h 3.5 mph /  5.6 km/h 47 % 0 in /  0.0 mm
14:14 53.1 °F /  11.7 °C 33.3 °F /  0.7 °C 30.2 in /  1021.9 hPa West 2.3 mph /  3.7 km/h 2.3 mph /  3.7 km/h 47 % 0 in /  0.0 mm
14:19 53.1 °F /  11.7 °C 33.3 °F /  0.7 °C 30.2 in /  1021.9 hPa NNE 3.5 mph /  5.6 km/h 3.5 mph /  5.6 km/h 47 % 0 in /  0.0 mm
14:24 53.1 °F /  11.7 °C 33.3 °F /  0.7 °C 30.2 in /  1020.9 hPa NE 4.6 mph /  7.4 km/h 4.6 mph /  7.4 km/h 47 % 0 in /  0.0 mm
14:29 53.1 °F /  11.7 °C 33.3 °F /  0.7 °C 30.2 in /  1020.9 hPa NNE 3.5 mph /  5.6 km/h 3.5 mph /  5.6 km/h 47 % 0 in /  0.0 mm
14:34 53.1 °F /  11.7 °C 33.3 °F /  0.7 °C 30.2 in /  1020.9 hPa NW 2.3 mph /  3.7 km/h 2.3 mph /  3.7 km/h 47 % 0 in /  0.0 mm
14:39 53.1 °F /  11.7 °C 33.3 °F /  0.7 °C 30.2 in /  1021.9 hPa NE 3.5 mph /  5.6 km/h 3.5 mph /  5.6 km/h 47 % 0 in /  0.0 mm
14:44 53.1 °F /  11.7 °C 33.3 °F /  0.7 °C 30.2 in /  1021.9 hPa NE 4.6 mph /  7.4 km/h 4.6 mph /  7.4 km/h 47 % 0 in /  0.0 mm
14:49 53.1 °F /  11.7 °C 33.3 °F /  0.7 °C 30.2 in /  1021.9 hPa NNE 4.6 mph /  7.4 km/h 4.6 mph /  7.4 km/h 47 % 0 in /  0.0 mm
14:54 53.1 °F /  11.7 °C 33.3 °F /  0.7 °C 30.2 in /  1020.9 hPa NNE 1.6 mph /  2.6 km/h 1.6 mph /  2.6 km/h 47 % 0 in /  0.0 mm
14:59 53.1 °F /  11.7 °C 33.3 °F /  0.7 °C 30.2 in /  1020.9 hPa ENE 4.6 mph /  7.4 km/h 4.6 mph /  7.4 km/h 47 % 0 in /  0.0 mm
15:04 52.9 °F /  11.6 °C 33.3 °F /  0.7 °C 30.2 in /  1020.9 hPa NNE 3.5 mph /  5.6 km/h 3.5 mph /  5.6 km/h 47 % 0 in /  0.0 mm
15:09 52.9 °F /  11.6 °C 33.3 °F /  0.7 °C 30.2 in /  1021.9 hPa ENE 3.5 mph /  5.6 km/h 3.5 mph /  5.6 km/h 47 % 0 in /  0.0 mm
15:14 52.9 °F /  11.6 °C 33.3 °F /  0.7 °C 30.2 in /  1021.9 hPa NNE 2.4 mph /  3.9 km/h 2.4 mph /  3.9 km/h 47 % 0 in /  0.0 mm
15:19 52.9 °F /  11.6 °C 33.3 °F /  0.7 °C 30.2 in /  1021.9 hPa ENE 2.3 mph /  3.7 km/h 2.3 mph /  3.7 km/h 47 % 0 in /  0.0 mm
15:24 52.7 °F /  11.5 °C 33.4 °F /  0.8 °C 30.2 in /  1020.9 hPa NW 2.3 mph /  3.7 km/h 2.3 mph /  3.7 km/h 48 % 0 in /  0.0 mm
15:29 52.7 °F /  11.5 °C 33.4 °F /  0.8 °C 30.2 in /  1020.9 hPa North 2.3 mph /  3.7 km/h   48 % 0 in /  0.0 mm
15:34 52.9 °F /  11.6 °C 33.6 °F /  0.9 °C 30.2 in /  1020.9 hPa WNW 2.3 mph /  3.7 km/h 2.3 mph /  3.7 km/h 48 % 0 in /  0.0 mm
15:39 52.7 °F /  11.5 °C 33.4 °F /  0.8 °C 30.2 in /  1020.9 hPa NNW 2.3 mph /  3.7 km/h 2.3 mph /  3.7 km/h 48 % 0 in /  0.0 mm
15:44 52.7 °F /  11.5 °C 33.4 °F /  0.8 °C 30.2 in /  1020.9 hPa NE 1.2 mph /  1.9 km/h   48 % 0 in /  0.0 mm
15:49 52.7 °F /  11.5 °C 33.4 °F /  0.8 °C 30.2 in /  1020.9 hPa NNE 3.1 mph /  5.0 km/h 3.1 mph /  5.0 km/h 48 % 0 in /  0.0 mm
15:54 52.7 °F /  11.5 °C 34.2 °F /  1.2 °C 30.2 in /  1021.9 hPa NE 1.4 mph /  2.3 km/h 1.4 mph /  2.3 km/h 49 % 0 in /  0.0 mm
15:59 52.7 °F /  11.5 °C 34.2 °F /  1.2 °C 30.2 in /  1021.9 hPa WNW 1.2 mph /  1.9 km/h   49 % 0 in /  0.0 mm
16:04 52.9 °F /  11.6 °C 34.2 °F /  1.2 °C 30.2 in /  1021.9 hPa NNW 1.2 mph /  1.9 km/h   49 % 0 in /  0.0 mm
16:09 52.9 °F /  11.6 °C 34.2 °F /  1.2 °C 30.2 in /  1020.9 hPa NNE 2.4 mph /  3.9 km/h 2.4 mph /  3.9 km/h 49 % 0 in /  0.0 mm
16:14 52.9 °F /  11.6 °C 34.2 °F /  1.2 °C 30.2 in /  1020.9 hPa NNE 1.2 mph /  1.9 km/h 1.2 mph /  1.9 km/h 49 % 0 in /  0.0 mm
16:19 52.9 °F /  11.6 °C 34.2 °F /  1.2 °C 30.2 in /  1020.9 hPa NNE 1.2 mph /  1.9 km/h   49 % 0 in /  0.0 mm
16:24 52.9 °F /  11.6 °C 34.7 °F /  1.5 °C 30.2 in /  1020.9 hPa North 1.6 mph /  2.6 km/h 1.6 mph /  2.6 km/h 50 % 0 in /  0.0 mm
16:29 52.7 °F /  11.5 °C 34.5 °F /  1.4 °C 30.2 in /  1020.9 hPa ENE 1.2 mph /  1.9 km/h   50 % 0 in /  0.0 mm
16:34 52.5 °F /  11.4 °C 34.3 °F /  1.3 °C 30.2 in /  1020.9 hPa East 2.3 mph /  3.7 km/h 2.3 mph /  3.7 km/h 50 % 0 in /  0.0 mm
16:39 52.3 °F /  11.3 °C 34.2 °F /  1.2 °C 30.2 in /  1020.9 hPa NW 2.6 mph /  4.2 km/h 2.6 mph /  4.2 km/h 50 % 0 in /  0.0 mm
16:44 52.3 °F /  11.3 °C 34.2 °F /  1.2 °C 30.2 in /  1020.9 hPa WNW 3.1 mph /  5.0 km/h 3.1 mph /  5.0 km/h 50 % 0 in /  0.0 mm
16:49 52.2 °F /  11.2 °C 34.2 °F /  1.2 °C 30.2 in /  1020.9 hPa North 1.6 mph /  2.6 km/h 1.6 mph /  2.6 km/h 50 % 0 in /  0.0 mm
16:54 52 °F /  11.1 °C 34 °F /  1.1 °C 30.1 in /  1019.9 hPa ENE 3.5 mph /  5.6 km/h 3.5 mph /  5.6 km/h 50 % 0 in /  0.0 mm
16:59 51.8 °F /  11.0 °C 33.6 °F /  0.9 °C 30.1 in /  1019.9 hPa North 2.4 mph /  3.9 km/h 2.4 mph /  3.9 km/h 50 % 0 in /  0.0 mm
17:04 51.6 °F /  10.9 °C 33.6 °F /  0.9 °C 30.1 in /  1019.9 hPa NNE 3.5 mph /  5.6 km/h 3.5 mph /  5.6 km/h 50 % 0 in /  0.0 mm
17:09 51.6 °F /  10.9 °C 33.6 °F /  0.9 °C 30.2 in /  1020.9 hPa North 1.4 mph /  2.3 km/h   50 % 0 in /  0.0 mm
17:14 51.4 °F /  10.8 °C 33.4 °F /  0.8 °C 30.2 in /  1020.9 hPa NNW 2.3 mph /  3.7 km/h   50 % 0 in /  0.0 mm
17:19 51.4 °F /  10.8 °C 33.4 °F /  0.8 °C 30.2 in /  1020.9 hPa WNW 1.6 mph /  2.6 km/h 1.6 mph /  2.6 km/h 50 % 0 in /  0.0 mm
17:24 51.3 °F /  10.7 °C 33.6 °F /  0.9 °C 30.1 in /  1019.9 hPa NW 1.2 mph /  1.9 km/h   51 % 0 in /  0.0 mm
17:29 51.3 °F /  10.7 °C 33.6 °F /  0.9 °C 30.1 in /  1019.9 hPa West 1.2 mph /  1.9 km/h   51 % 0 in /  0.0 mm
17:34 51.3 °F /  10.7 °C 33.6 °F /  0.9 °C 30.1 in /  1019.9 hPa NNE 1.2 mph /  1.9 km/h   51 % 0 in /  0.0 mm
17:39 51.1 °F /  10.6 °C 33.6 °F /  0.9 °C 30.2 in /  1020.9 hPa NE 1.2 mph /  1.9 km/h 1.2 mph /  1.9 km/h 51 % 0 in /  0.0 mm
17:44 51.1 °F /  10.6 °C 33.6 °F /  0.9 °C 30.2 in /  1020.9 hPa Calm     51 % 0 in /  0.0 mm
17:49 50.9 °F /  10.5 °C 33.4 °F /  0.8 °C 30.2 in /  1020.9 hPa Calm     51 % 0 in /  0.0 mm
17:54 50.7 °F /  10.4 °C 33.3 °F /  0.7 °C 30.2 in /  1020.9 hPa Calm     51 % 0 in /  0.0 mm
17:59 50.5 °F /  10.3 °C 33.1 °F /  0.6 °C 30.2 in /  1020.9 hPa Calm     51 % 0 in /  0.0 mm
18:04 50.4 °F /  10.2 °C 32.9 °F /  0.5 °C 30.2 in /  1020.9 hPa Calm     51 % 0 in /  0.0 mm
18:09 50.4 °F /  10.2 °C 32.9 °F /  0.5 °C 30.2 in /  1020.9 hPa WNW 1.2 mph /  1.9 km/h 1.2 mph /  1.9 km/h 51 % 0 in /  0.0 mm
18:14 50 °F /  10.0 °C 33.1 °F /  0.6 °C 30.2 in /  1020.9 hPa Calm     52 % 0 in /  0.0 mm
18:15 46.2 °F /  7.9 °C 30.9 °F /  -0.6 °C 30.2 in /  1022.9 hPa NNW 1 mph /  1.6 km/h 2 mph /  3.2 km/h 55 % 0 in /  0.0 mm
18:19 50 °F /  10.0 °C 33.1 °F /  0.6 °C 30.2 in /  1020.9 hPa Calm     52 % 0 in /  0.0 mm
18:24 49.6 °F /  9.8 °C 32.7 °F /  0.4 °C 30.2 in /  1021.9 hPa Calm     52 % 0 in /  0.0 mm
18:25 46 °F /  7.8 °C 30.7 °F /  -0.7 °C 30.2 in /  1021.9 hPa ESE 1 mph /  1.6 km/h 1 mph /  1.6 km/h 55 % 0 in /  0.0 mm
18:29 49.6 °F /  9.8 °C 32.7 °F /  0.4 °C 30.2 in /  1021.9 hPa WNW 1.4 mph /  2.3 km/h 1.4 mph /  2.3 km/h 52 % 0 in /  0.0 mm
18:34 49.5 °F /  9.7 °C 32.5 °F /  0.3 °C 30.2 in /  1021.9 hPa West 1.2 mph /  1.9 km/h 1.2 mph /  1.9 km/h 52 % 0 in /  0.0 mm
18:35 45.9 °F /  7.7 °C 30.6 °F /  -0.8 °C 30.2 in /  1021.9 hPa SSW 1 mph /  1.6 km/h 1 mph /  1.6 km/h 55 % 0 in /  0.0 mm
18:39 49.3 °F /  9.6 °C 32.9 °F /  0.5 °C 30.2 in /  1020.9 hPa SW 1.2 mph /  1.9 km/h   53 % 0 in /  0.0 mm
18:44 48.9 °F /  9.4 °C 32.5 °F /  0.3 °C 30.2 in /  1020.9 hPa Calm     53 % 0 in /  0.0 mm
18:45 45.7 °F /  7.6 °C 30.4 °F /  -0.9 °C 30.2 in /  1021.9 hPa SW 1 mph /  1.6 km/h 4 mph /  6.4 km/h 55 % 0 in /  0.0 mm
18:49 48.9 °F /  9.4 °C 32.5 °F /  0.3 °C 30.2 in /  1020.9 hPa NE 2 mph /  3.2 km/h 2 mph /  3.2 km/h 53 % 0 in /  0.0 mm
18:54 48.7 °F /  9.3 °C 32.7 °F /  0.4 °C 30.2 in /  1021.9 hPa NW 1.4 mph /  2.3 km/h   54 % 0 in /  0.0 mm
18:55 45.3 °F /  7.4 °C 30 °F /  -1.1 °C 30.2 in /  1022.9 hPa WSW 2 mph /  3.2 km/h 3 mph /  4.8 km/h 55 % 0 in /  0.0 mm
18:59 48.7 °F /  9.3 °C 32.7 °F /  0.4 °C 30.2 in /  1021.9 hPa NW 1.2 mph /  1.9 km/h 1.2 mph /  1.9 km/h 54 % 0 in /  0.0 mm
19:05 45 °F /  7.2 °C 29.8 °F /  -1.2 °C 30.2 in /  1022.9 hPa Calm   2 mph /  3.2 km/h 55 % 0 in /  0.0 mm
19:09 48.7 °F /  9.3 °C 32.4 °F /  0.2 °C 30.2 in /  1021.9 hPa NW 2.3 mph /  3.7 km/h 2.3 mph /  3.7 km/h 53 % 0 in /  0.0 mm
19:14 48.6 °F /  9.2 °C 32.7 °F /  0.4 °C 30.2 in /  1021.9 hPa NNE 1.2 mph /  1.9 km/h   54 % 0 in /  0.0 mm
19:15 44.4 °F /  6.9 °C 29.1 °F /  -1.6 °C 30.2 in /  1021.9 hPa SW 2 mph /  3.2 km/h 2 mph /  3.2 km/h 55 % 0 in /  0.0 mm
19:19 48.6 °F /  9.2 °C 32.7 °F /  0.4 °C 30.2 in /  1021.9 hPa NW 1.2 mph /  1.9 km/h   54 % 0 in /  0.0 mm
19:24 48.6 °F /  9.2 °C 32.7 °F /  0.4 °C 30.2 in /  1021.9 hPa Calm     54 % 0 in /  0.0 mm
19:29 48.6 °F /  9.2 °C 32.7 °F /  0.4 °C 30.2 in /  1021.9 hPa Calm     54 % 0 in /  0.0 mm
19:34 48.6 °F /  9.2 °C 32.7 °F /  0.4 °C 30.2 in /  1021.9 hPa NW 1.2 mph /  1.9 km/h 1.2 mph /  1.9 km/h 54 % 0 in /  0.0 mm
19:35 43.7 °F /  6.5 °C 28.9 °F /  -1.7 °C 30.2 in /  1021.9 hPa WSW 2 mph /  3.2 km/h 2 mph /  3.2 km/h 56 % 0 in /  0.0 mm
19:39 48.6 °F /  9.2 °C 32.7 °F /  0.4 °C 30.2 in /  1021.9 hPa WNW 1.2 mph /  1.9 km/h   54 % 0 in /  0.0 mm
19:44 48.6 °F /  9.2 °C 32.7 °F /  0.4 °C 30.2 in /  1021.9 hPa WNW 2.2 mph /  3.5 km/h 2.2 mph /  3.5 km/h 54 % 0 in /  0.0 mm
19:45 43.2 °F /  6.2 °C 28.6 °F /  -1.9 °C 30.2 in /  1021.9 hPa SW 2 mph /  3.2 km/h 2 mph /  3.2 km/h 56 % 0 in /  0.0 mm
19:49 48.6 °F /  9.2 °C 32.7 °F /  0.4 °C 30.2 in /  1021.9 hPa NNE 2 mph /  3.2 km/h 2 mph /  3.2 km/h 54 % 0 in /  0.0 mm
19:54 48.6 °F /  9.2 °C 32.7 °F /  0.4 °C 30.2 in /  1021.9 hPa Calm     54 % 0 in /  0.0 mm
19:55 42.8 °F /  6.0 °C 28.6 °F /  -1.9 °C 30.2 in /  1021.9 hPa SW 1 mph /  1.6 km/h 3 mph /  4.8 km/h 57 % 0 in /  0.0 mm
19:59 48.4 °F /  9.1 °C 32.5 °F /  0.3 °C 30.2 in /  1021.9 hPa South 1.2 mph /  1.9 km/h   54 % 0 in /  0.0 mm
20:04 48.2 °F /  9.0 °C 32.4 °F /  0.2 °C 30.2 in /  1021.9 hPa WSW 1.6 mph /  2.6 km/h   54 % 0 in /  0.0 mm
20:05 42.4 °F /  5.8 °C 28.2 °F /  -2.1 °C 30.2 in /  1021.9 hPa SW 1 mph /  1.6 km/h 2 mph /  3.2 km/h 57 % 0 in /  0.0 mm
20:14 47.1 °F /  8.4 °C 31.8 °F /  -0.1 °C 30.2 in /  1021.9 hPa NE 1.6 mph /  2.6 km/h 1.6 mph /  2.6 km/h 55 % 0 in /  0.0 mm
20:15 42.4 °F /  5.8 °C 28.2 °F /  -2.1 °C 30.2 in /  1022.9 hPa WSW 2 mph /  3.2 km/h 2 mph /  3.2 km/h 57 % 0 in /  0.0 mm
20:24 47.1 °F /  8.4 °C 32.2 °F /  0.1 °C 30.2 in /  1021.9 hPa Calm     56 % 0 in /  0.0 mm
20:25 42.3 °F /  5.7 °C 28.6 °F /  -1.9 °C 30.2 in /  1022.9 hPa Calm   2 mph /  3.2 km/h 58 % 0 in /  0.0 mm
20:29 47.1 °F /  8.4 °C 32.2 °F /  0.1 °C 30.2 in /  1021.9 hPa Calm     56 % 0 in /  0.0 mm
20:34 46.9 °F /  8.3 °C 32 °F /  0.0 °C 30.2 in /  1021.9 hPa WNW 1.2 mph /  1.9 km/h 1.2 mph /  1.9 km/h 56 % 0 in /  0.0 mm
20:35 42.1 °F /  5.6 °C 28.4 °F /  -2.0 °C 30.2 in /  1022.9 hPa WSW 1 mph /  1.6 km/h 2 mph /  3.2 km/h 58 % 0 in /  0.0 mm
20:39 46.8 °F /  8.2 °C 31.8 °F /  -0.1 °C 30.2 in /  1020.9 hPa North 1.2 mph /  1.9 km/h 1.2 mph /  1.9 km/h 56 % 0 in /  0.0 mm
20:44 46.9 °F /  8.3 °C 32 °F /  0.0 °C 30.2 in /  1020.9 hPa Calm     56 % 0 in /  0.0 mm
20:45 42.1 °F /  5.6 °C 28.8 °F /  -1.8 °C 30.2 in /  1021.9 hPa Calm   2 mph /  3.2 km/h 59 % 0 in /  0.0 mm
20:49 46.9 °F /  8.3 °C 32 °F /  0.0 °C 30.2 in /  1020.9 hPa West 1.2 mph /  1.9 km/h 1.2 mph /  1.9 km/h 56 % 0 in /  0.0 mm
20:54 46.8 °F /  8.2 °C 31.8 °F /  -0.1 °C 30.2 in /  1021.9 hPa Calm     56 % 0 in /  0.0 mm
20:55 41.9 °F /  5.5 °C 28.6 °F /  -1.9 °C 30.2 in /  1021.9 hPa WSW 1 mph /  1.6 km/h 2 mph /  3.2 km/h 59 % 0 in /  0.0 mm
20:59 46.6 °F /  8.1 °C 31.6 °F /  -0.2 °C 30.2 in /  1021.9 hPa West 0.9 mph /  1.4 km/h   56 % 0 in /  0.0 mm
21:04 46.4 °F /  8.0 °C 31.5 °F /  -0.3 °C 30.2 in /  1021.9 hPa WNW 1.2 mph /  1.9 km/h   56 % 0 in /  0.0 mm
21:05 41.7 °F /  5.4 °C 28.4 °F /  -2.0 °C 30.2 in /  1021.9 hPa West 1 mph /  1.6 km/h 2 mph /  3.2 km/h 59 % 0 in /  0.0 mm
21:09 46.4 °F /  8.0 °C 31.5 °F /  -0.3 °C 30.2 in /  1021.9 hPa Calm     56 % 0 in /  0.0 mm
21:14 46.6 °F /  8.1 °C 31.6 °F /  -0.2 °C 30.2 in /  1021.9 hPa West 2.3 mph /  3.7 km/h 2.3 mph /  3.7 km/h 56 % 0 in /  0.0 mm
21:15 41.7 °F /  5.4 °C 28.8 °F /  -1.8 °C 30.2 in /  1021.9 hPa West 1 mph /  1.6 km/h 2 mph /  3.2 km/h 60 % 0 in /  0.0 mm
21:19 46.4 °F /  8.0 °C 31.5 °F /  -0.3 °C 30.2 in /  1021.9 hPa WSW 2.3 mph /  3.7 km/h 2.3 mph /  3.7 km/h 56 % 0 in /  0.0 mm
21:24 46 °F /  7.8 °C 31.3 °F /  -0.4 °C 30.2 in /  1020.9 hPa WSW 1.2 mph /  1.9 km/h   56 % 0 in /  0.0 mm
21:25 41.2 °F /  5.1 °C 28.2 °F /  -2.1 °C 30.2 in /  1022.9 hPa North 2 mph /  3.2 km/h 3 mph /  4.8 km/h 60 % 0 in /  0.0 mm
21:29 46.2 °F /  7.9 °C 31.5 °F /  -0.3 °C 30.2 in /  1020.9 hPa SE 1.2 mph /  1.9 km/h 1.2 mph /  1.9 km/h 56 % 0 in /  0.0 mm
21:34 46.6 °F /  8.1 °C 31.6 °F /  -0.2 °C 30.2 in /  1020.9 hPa North 1.2 mph /  1.9 km/h   56 % 0 in /  0.0 mm
21:35 40.5 °F /  4.7 °C 28 °F /  -2.2 °C 30.2 in /  1022.9 hPa Calm   1 mph /  1.6 km/h 61 % 0 in /  0.0 mm
21:39 46.8 °F /  8.2 °C 31.8 °F /  -0.1 °C 30.2 in /  1021.9 hPa WSW 2.2 mph /  3.5 km/h   56 % 0 in /  0.0 mm
21:44 47.1 °F /  8.4 °C 31.8 °F /  -0.1 °C 30.2 in /  1021.9 hPa WSW 2.3 mph /  3.7 km/h 2.3 mph /  3.7 km/h 55 % 0 in /  0.0 mm
21:45 40.1 °F /  4.5 °C 27.7 °F /  -2.4 °C 30.2 in /  1022.9 hPa Calm   1 mph /  1.6 km/h 61 % 0 in /  0.0 mm
21:49 47.3 °F /  8.5 °C 31.8 °F /  -0.1 °C 30.2 in /  1021.9 hPa WSW 1.2 mph /  1.9 km/h   55 % 0 in /  0.0 mm
21:54 47.5 °F /  8.6 °C 32.2 °F /  0.1 °C 30.2 in /  1021.9 hPa WSW 1.6 mph /  2.6 km/h 1.6 mph /  2.6 km/h 55 % 0 in /  0.0 mm
21:55 39.9 °F /  4.4 °C 27.5 °F /  -2.5 °C 30.2 in /  1022.9 hPa ESE 2 mph /  3.2 km/h 2 mph /  3.2 km/h 61 % 0 in /  0.0 mm
21:59 47.5 °F /  8.6 °C 32.2 °F /  0.1 °C 30.2 in /  1021.9 hPa WSW 2.3 mph /  3.7 km/h 2.3 mph /  3.7 km/h 55 % 0 in /  0.0 mm
22:04 46.9 °F /  8.3 °C 31.6 °F /  -0.2 °C 30.2 in /  1021.9 hPa West 3.5 mph /  5.6 km/h 3.5 mph /  5.6 km/h 55 % 0 in /  0.0 mm
22:05 39.9 °F /  4.4 °C 27.9 °F /  -2.3 °C 30.2 in /  1022.9 hPa Calm   2 mph /  3.2 km/h 62 % 0 in /  0.0 mm
22:09 46.9 °F /  8.3 °C 31.6 °F /  -0.2 °C 30.2 in /  1021.9 hPa WSW 2.3 mph /  3.7 km/h 2.3 mph /  3.7 km/h 55 % 0 in /  0.0 mm
22:14 47.1 °F /  8.4 °C 31.8 °F /  -0.1 °C 30.2 in /  1021.9 hPa NNW 2.3 mph /  3.7 km/h 2.3 mph /  3.7 km/h 55 % 0 in /  0.0 mm
22:15 39.7 °F /  4.3 °C 27.9 °F /  -2.3 °C 30.2 in /  1022.9 hPa West 1 mph /  1.6 km/h 2 mph /  3.2 km/h 62 % 0 in /  0.0 mm
22:19 47.3 °F /  8.5 °C 31.8 °F /  -0.1 °C 30.2 in /  1021.9 hPa West 3.6 mph /  5.8 km/h 3.6 mph /  5.8 km/h 55 % 0 in /  0.0 mm
22:24 47.5 °F /  8.6 °C 31.6 °F /  -0.2 °C 30.2 in /  1021.9 hPa West 4.6 mph /  7.4 km/h 4.6 mph /  7.4 km/h 54 % 0 in /  0.0 mm
22:25 39.7 °F /  4.3 °C 28.2 °F /  -2.1 °C 30.2 in /  1022.9 hPa NE 1 mph /  1.6 km/h 2 mph /  3.2 km/h 63 % 0 in /  0.0 mm
22:29 47.7 °F /  8.7 °C 31.8 °F /  -0.1 °C 30.2 in /  1021.9 hPa West 2.6 mph /  4.2 km/h 2.6 mph /  4.2 km/h 54 % 0 in /  0.0 mm
22:34 47.8 °F /  8.8 °C 32 °F /  0.0 °C 30.2 in /  1021.9 hPa East 4.6 mph /  7.4 km/h 4.6 mph /  7.4 km/h 54 % 0 in /  0.0 mm
22:35 40.1 °F /  4.5 °C 28.6 °F /  -1.9 °C 30.2 in /  1022.9 hPa NE 1 mph /  1.6 km/h 1 mph /  1.6 km/h 63 % 0 in /  0.0 mm
22:39 48 °F /  8.9 °C 32.2 °F /  0.1 °C 30.2 in /  1021.9 hPa West 3.5 mph /  5.6 km/h 3.5 mph /  5.6 km/h 54 % 0 in /  0.0 mm
22:44 48 °F /  8.9 °C 32.2 °F /  0.1 °C 30.2 in /  1021.9 hPa West 4.7 mph /  7.6 km/h 4.7 mph /  7.6 km/h 54 % 0 in /  0.0 mm
22:45 40.3 °F /  4.6 °C 28.2 °F /  -2.1 °C 30.2 in /  1022.9 hPa NE 1 mph /  1.6 km/h 2 mph /  3.2 km/h 62 % 0 in /  0.0 mm
22:49 47.8 °F /  8.8 °C 32 °F /  0.0 °C 30.2 in /  1021.9 hPa WSW 4.6 mph /  7.4 km/h 4.6 mph /  7.4 km/h 54 % 0 in /  0.0 mm
22:54 47.7 °F /  8.7 °C 31.8 °F /  -0.1 °C 30.2 in /  1021.9 hPa WSW 3.5 mph /  5.6 km/h 3.5 mph /  5.6 km/h 54 % 0 in /  0.0 mm
22:55 39.9 °F /  4.4 °C 27.9 °F /  -2.3 °C 30.2 in /  1022.9 hPa NNE 1 mph /  1.6 km/h 2 mph /  3.2 km/h 62 % 0 in /  0.0 mm
22:59 47.5 °F /  8.6 °C 31.6 °F /  -0.2 °C 30.2 in /  1021.9 hPa SW 3.5 mph /  5.6 km/h 3.5 mph /  5.6 km/h 54 % 0 in /  0.0 mm
23:04 47.1 °F /  8.4 °C 31.3 °F /  -0.4 °C 30.2 in /  1021.9 hPa WSW 2.3 mph /  3.7 km/h 2.4 mph /  3.9 km/h 54 % 0 in /  0.0 mm
23:05 39.9 °F /  4.4 °C 28.2 °F /  -2.1 °C 30.2 in /  1022.9 hPa NNE 1 mph /  1.6 km/h 1 mph /  1.6 km/h 63 % 0 in /  0.0 mm
23:09 46.9 °F /  8.3 °C 31.1 °F /  -0.5 °C 30.2 in /  1021.9 hPa SW 2.3 mph /  3.7 km/h 2.3 mph /  3.7 km/h 54 % 0 in /  0.0 mm
23:14 46.8 °F /  8.2 °C 30.9 °F /  -0.6 °C 30.2 in /  1021.9 hPa WSW 3.5 mph /  5.6 km/h 3.5 mph /  5.6 km/h 54 % 0 in /  0.0 mm
23:15 39.7 °F /  4.3 °C 28.2 °F /  -2.1 °C 30.2 in /  1022.9 hPa Calm   1 mph /  1.6 km/h 63 % 0 in /  0.0 mm
23:19 46.8 °F /  8.2 °C 30.9 °F /  -0.6 °C 30.2 in /  1021.9 hPa West 5.8 mph /  9.3 km/h 5.8 mph /  9.3 km/h 54 % 0 in /  0.0 mm
23:24 46.6 °F /  8.1 °C 30.7 °F /  -0.7 °C 30.2 in /  1021.9 hPa West 3.5 mph /  5.6 km/h 3.5 mph /  5.6 km/h 54 % 0 in /  0.0 mm
23:25 39.7 °F /  4.3 °C 28.2 °F /  -2.1 °C 30.2 in /  1022.9 hPa NNE 2 mph /  3.2 km/h 3 mph /  4.8 km/h 63 % 0 in /  0.0 mm
23:29 46.6 °F /  8.1 °C 30.7 °F /  -0.7 °C 30.2 in /  1021.9 hPa SW 2.3 mph /  3.7 km/h 2.3 mph /  3.7 km/h 54 % 0 in /  0.0 mm
23:34 46.4 °F /  8.0 °C 30.6 °F /  -0.8 °C 30.2 in /  1021.9 hPa SSW 2.3 mph /  3.7 km/h 2.3 mph /  3.7 km/h 54 % 0 in /  0.0 mm
23:35 39.6 °F /  4.2 °C 28 °F /  -2.2 °C 30.2 in /  1022.9 hPa NNE 1 mph /  1.6 km/h 3 mph /  4.8 km/h 63 % 0 in /  0.0 mm
23:39 46 °F /  7.8 °C 30.7 °F /  -0.7 °C 30.2 in /  1022.9 hPa SW 1.2 mph /  1.9 km/h   55 % 0 in /  0.0 mm
23:44 45.9 °F /  7.7 °C 30.6 °F /  -0.8 °C 30.2 in /  1022.9 hPa SW 1.2 mph /  1.9 km/h   55 % 0 in /  0.0 mm
23:45 39.4 °F /  4.1 °C 27.9 °F /  -2.3 °C 30.2 in /  1022.9 hPa NE 1 mph /  1.6 km/h 2 mph /  3.2 km/h 63 % 0 in /  0.0 mm
23:49 45.7 °F /  7.6 °C 30.4 °F /  -0.9 °C 30.2 in /  1022.9 hPa West 3.8 mph /  6.1 km/h 3.8 mph /  6.1 km/h 55 % 0 in /  0.0 mm
23:54 45.9 °F /  7.7 °C 30.6 °F /  -0.8 °C 30.2 in /  1022.9 hPa West 2.3 mph /  3.7 km/h 2.3 mph /  3.7 km/h 55 % 0 in /  0.0 mm
23:55 39 °F /  3.9 °C 27.5 °F /  -2.5 °C 30.2 in /  1023.9 hPa Calm   1 mph /  1.6 km/h 63 % 0 in /  0.0 mm
23:59 46 °F /  7.8 °C 30.7 °F /  -0.7 °C 30.2 in /  1022.9 hPa WNW 3.5 mph /  5.6 km/h 3.5 mph /  5.6 km/h 55 % 0 in /  0.0 mm
Meteo Sesrovires
Elogis d' Weather Underground - 3.75 mb

Guio original per  Jim McMurry - jmcmurry@mwt.net Adaptat per a la plantilla per  Wim van der Kuil - Leuven-Template.eu

Trobareu la nostra informacio del temps tambe a:

Weather Underground

AWEKAS